sensor_id;sensor_type;location;lat;lon;timestamp;P1;P2;P0
82823;PMS5003;72575;46.834;-71.234;2024-01-30T00:01:33;84.56;61.22;32.33
82823;PMS5003;72575;46.834;-71.234;2024-01-30T00:03:57;15.67;13.1;7.19
82823;PMS5003;72575;46.834;-71.234;2024-01-30T00:06:23;6.67;6.67;3.62
82823;PMS5003;72575;46.834;-71.234;2024-01-30T00:08:49;6.29;6.29;3.81
82823;PMS5003;72575;46.834;-71.234;2024-01-30T00:11:12;16.57;14.86;8.43
82823;PMS5003;72575;46.834;-71.234;2024-01-30T00:13:38;10.57;7.19;3.52
82823;PMS5003;72575;46.834;-71.234;2024-01-30T00:16:06;6.14;6;3
82823;PMS5003;72575;46.834;-71.234;2024-01-30T00:18:29;7.86;6;2.95
82823;PMS5003;72575;46.834;-71.234;2024-01-30T00:20:56;17.14;12.62;7.48
82823;PMS5003;72575;46.834;-71.234;2024-01-30T00:23:21;13.38;12.24;7.1
82823;PMS5003;72575;46.834;-71.234;2024-01-30T00:25:46;9.86;9.14;5.05
82823;PMS5003;72575;46.834;-71.234;2024-01-30T00:28:11;4.38;4.14;3
82823;PMS5003;72575;46.834;-71.234;2024-01-30T00:30:37;6.57;6.57;3.67
82823;PMS5003;72575;46.834;-71.234;2024-01-30T00:33:02;6.82;5.45;2.64
82823;PMS5003;72575;46.834;-71.234;2024-01-30T00:35:29;10.76;9.33;3.62
82823;PMS5003;72575;46.834;-71.234;2024-01-30T00:37:52;6;4.76;2.9
82823;PMS5003;72575;46.834;-71.234;2024-01-30T00:40:20;3;3;1.57
82823;PMS5003;72575;46.834;-71.234;2024-01-30T00:42:42;6.19;6.19;3.19
82823;PMS5003;72575;46.834;-71.234;2024-01-30T00:45:11;7.48;6.81;3.52
82823;PMS5003;72575;46.834;-71.234;2024-01-30T00:47:35;7.38;6.33;4
82823;PMS5003;72575;46.834;-71.234;2024-01-30T00:50:02;8.27;6.91;3
82823;PMS5003;72575;46.834;-71.234;2024-01-30T00:52:25;6.24;6;3.1
82823;PMS5003;72575;46.834;-71.234;2024-01-30T00:54:51;4.76;4.76;2.33
82823;PMS5003;72575;46.834;-71.234;2024-01-30T00:57:18;6.24;4.48;3
82823;PMS5003;72575;46.834;-71.234;2024-01-30T00:59:44;4.14;4.14;3.1
82823;PMS5003;72575;46.834;-71.234;2024-01-30T01:02:11;7;6;3
82823;PMS5003;72575;46.834;-71.234;2024-01-30T01:04:37;3.62;3.62;1
82823;PMS5003;72575;46.834;-71.234;2024-01-30T01:07:02;4.09;4.09;2.77
82823;PMS5003;72575;46.834;-71.234;2024-01-30T01:09:28;8.52;6.67;3
82823;PMS5003;72575;46.834;-71.234;2024-01-30T01:11:52;3.95;3.95;1.76
82823;PMS5003;72575;46.834;-71.234;2024-01-30T01:14:18;2.81;2.81;0.9
82823;PMS5003;72575;46.834;-71.234;2024-01-30T01:16:44;5.33;5.33;2.81
82823;PMS5003;72575;46.834;-71.234;2024-01-30T01:19:07;8.57;8.19;4
82823;PMS5003;72575;46.834;-71.234;2024-01-30T01:21:32;5.67;3.67;1.76
82823;PMS5003;72575;46.834;-71.234;2024-01-30T01:24:01;6.64;6;3
82823;PMS5003;72575;46.834;-71.234;2024-01-30T01:26:24;4;3.62;2.81
82823;PMS5003;72575;46.834;-71.234;2024-01-30T01:28:50;6.19;6.19;2.57
82823;PMS5003;72575;46.834;-71.234;2024-01-30T01:31:16;4;4;3
82823;PMS5003;72575;46.834;-71.234;2024-01-30T01:33:41;5.62;4.19;2.33
82823;PMS5003;72575;46.834;-71.234;2024-01-30T01:36:05;4.19;3.95;2.9
82823;PMS5003;72575;46.834;-71.234;2024-01-30T01:38:31;7.43;6.86;3.29
82823;PMS5003;72575;46.834;-71.234;2024-01-30T01:40:57;4.91;4.91;3
82823;PMS5003;72575;46.834;-71.234;2024-01-30T01:43:23;1.76;1.76;1
82823;PMS5003;72575;46.834;-71.234;2024-01-30T01:45:47;5.33;3.95;2.05
82823;PMS5003;72575;46.834;-71.234;2024-01-30T01:48:14;3.81;3.81;1.95
82823;PMS5003;72575;46.834;-71.234;2024-01-30T01:50:38;3.71;3;3
82823;PMS5003;72575;46.834;-71.234;2024-01-30T01:53:03;4.1;4.1;1.95
82823;PMS5003;72575;46.834;-71.234;2024-01-30T01:55:30;5.1;4.57;3
82823;PMS5003;72575;46.834;-71.234;2024-01-30T01:57:56;6.41;6.14;3.55
82823;PMS5003;72575;46.834;-71.234;2024-01-30T02:00:22;5.62;4.48;1.76
82823;PMS5003;72575;46.834;-71.234;2024-01-30T02:02:47;5.1;4.95;3.24
82823;PMS5003;72575;46.834;-71.234;2024-01-30T02:05:10;7.35;7;2.55
82823;PMS5003;72575;46.834;-71.234;2024-01-30T02:07:36;8.57;7.29;4
82823;PMS5003;72575;46.834;-71.234;2024-01-30T02:10:03;9.71;3.95;1
82823;PMS5003;72575;46.834;-71.234;2024-01-30T02:12:26;4;4;3
82823;PMS5003;72575;46.834;-71.234;2024-01-30T02:14:54;4.45;2.5;0.82
82823;PMS5003;72575;46.834;-71.234;2024-01-30T02:17:18;3.38;2.71;0.24
82823;PMS5003;72575;46.834;-71.234;2024-01-30T02:19:44;4.19;3.24;1
82823;PMS5003;72575;46.834;-71.234;2024-01-30T02:22:10;3.9;3;1.95
82823;PMS5003;72575;46.834;-71.234;2024-01-30T02:24:33;3.1;3.1;2.33
82823;PMS5003;72575;46.834;-71.234;2024-01-30T02:27:00;7.19;7.1;5.81
82823;PMS5003;72575;46.834;-71.234;2024-01-30T02:29:25;3.38;3.38;1.48
82823;PMS5003;72575;46.834;-71.234;2024-01-30T02:31:52;3.36;2.82;0.91
82823;PMS5003;72575;46.834;-71.234;2024-01-30T02:34:18;4;3.62;3.1
82823;PMS5003;72575;46.834;-71.234;2024-01-30T02:36:42;5.86;4.1;1.43
82823;PMS5003;72575;46.834;-71.234;2024-01-30T02:39:07;3.81;0.81;0.67
82823;PMS5003;72575;46.834;-71.234;2024-01-30T02:41:33;3.1;3.1;1
82823;PMS5003;72575;46.834;-71.234;2024-01-30T02:43:57;3.19;3.19;1.67
82823;PMS5003;72575;46.834;-71.234;2024-01-30T02:46:25;5.24;5.05;1.19
82823;PMS5003;72575;46.834;-71.234;2024-01-30T02:48:50;6.18;5.77;1.36
82823;PMS5003;72575;46.834;-71.234;2024-01-30T02:51:14;4.29;4.29;2.33
82823;PMS5003;72575;46.834;-71.234;2024-01-30T02:53:40;4.14;4.14;1.48
82823;PMS5003;72575;46.834;-71.234;2024-01-30T02:56:06;3.9;3.9;1.38
82823;PMS5003;72575;46.834;-71.234;2024-01-30T02:58:30;2.52;2.52;0.48
82823;PMS5003;72575;46.834;-71.234;2024-01-30T03:00:56;7.33;5.9;2.62
82823;PMS5003;72575;46.834;-71.234;2024-01-30T03:03:22;3.43;3.43;1.76
82823;PMS5003;72575;46.834;-71.234;2024-01-30T03:05:48;4.73;4.73;3.14
82823;PMS5003;72575;46.834;-71.234;2024-01-30T03:08:12;6.19;5.62;3
82823;PMS5003;72575;46.834;-71.234;2024-01-30T03:10:39;3.05;3.05;1
82823;PMS5003;72575;46.834;-71.234;2024-01-30T03:13:04;3.52;3.52;0.9
82823;PMS5003;72575;46.834;-71.234;2024-01-30T03:15:29;3.48;3.48;1
82823;PMS5003;72575;46.834;-71.234;2024-01-30T03:17:54;5.05;4.48;3
82823;PMS5003;72575;46.834;-71.234;2024-01-30T03:20:20;1.1;1.1;0.48
82823;PMS5003;72575;46.834;-71.234;2024-01-30T03:22:46;3.09;2.91;2.18
82823;PMS5003;72575;46.834;-71.234;2024-01-30T03:25:12;3.38;3.38;1.76
82823;PMS5003;72575;46.834;-71.234;2024-01-30T03:27:35;2.33;2.33;0.38
82823;PMS5003;72575;46.834;-71.234;2024-01-30T03:30:01;3;3;0.9
82823;PMS5003;72575;46.834;-71.234;2024-01-30T03:32:27;3.52;3.52;2.62
82823;PMS5003;72575;46.834;-71.234;2024-01-30T03:34:53;1;0.24;0.24
82823;PMS5003;72575;46.834;-71.234;2024-01-30T03:37:18;2.81;2.81;1
82823;PMS5003;72575;46.834;-71.234;2024-01-30T03:39:44;4.55;4.55;2.55
82823;PMS5003;72575;46.834;-71.234;2024-01-30T03:42:09;3.24;3.24;1.76
82823;PMS5003;72575;46.834;-71.234;2024-01-30T03:44:33;3.9;3.9;1
82823;PMS5003;72575;46.834;-71.234;2024-01-30T03:46:59;2.81;2.81;1
82823;PMS5003;72575;46.834;-71.234;2024-01-30T03:49:25;0.9;0.9;0.24
82823;PMS5003;72575;46.834;-71.234;2024-01-30T03:51:48;1.29;1.19;0.52
82823;PMS5003;72575;46.834;-71.234;2024-01-30T03:54:14;1;1;1
82823;PMS5003;72575;46.834;-71.234;2024-01-30T03:56:41;5.84;5.84;1.74
82823;PMS5003;72575;46.834;-71.234;2024-01-30T03:59:07;2.9;2.9;0.38
82823;PMS5003;72575;46.834;-71.234;2024-01-30T04:01:31;2.9;1;0.38
82823;PMS5003;72575;46.834;-71.234;2024-01-30T04:03:57;5.43;3.52;0.62
82823;PMS5003;72575;46.834;-71.234;2024-01-30T04:06:23;5.71;2.62;1
82823;PMS5003;72575;46.834;-71.234;2024-01-30T04:08:49;2.05;2.05;1.43
82823;PMS5003;72575;46.834;-71.234;2024-01-30T04:11:11;1.1;1;0.1
82823;PMS5003;72575;46.834;-71.234;2024-01-30T04:13:40;1;1;0.41
82823;PMS5003;72575;46.834;-71.234;2024-01-30T04:16:04;2.81;2.81;1.38
82823;PMS5003;72575;46.834;-71.234;2024-01-30T04:18:30;1.76;1.76;0.38
82823;PMS5003;72575;46.834;-71.234;2024-01-30T04:20:54;4;4;3
82823;PMS5003;72575;46.834;-71.234;2024-01-30T04:23:20;6.1;3.9;3
82823;PMS5003;72575;46.834;-71.234;2024-01-30T04:25:45;2.43;2.24;0.86
82823;PMS5003;72575;46.834;-71.234;2024-01-30T04:28:12;2.62;2.62;0.81
82823;PMS5003;72575;46.834;-71.234;2024-01-30T04:30:38;3.55;2.36;1
82823;PMS5003;72575;46.834;-71.234;2024-01-30T04:33:02;1.48;1.48;0.81
82823;PMS5003;72575;46.834;-71.234;2024-01-30T04:35:28;3.19;3.19;1.38
82823;PMS5003;72575;46.834;-71.234;2024-01-30T04:37:52;1.48;1.48;0.38
82823;PMS5003;72575;46.834;-71.234;2024-01-30T04:40:18;2.14;1.19;0.95
82823;PMS5003;72575;46.834;-71.234;2024-01-30T04:42:44;3.52;3.52;1
82823;PMS5003;72575;46.834;-71.234;2024-01-30T04:45:09;2.86;1;0.38
82823;PMS5003;72575;46.834;-71.234;2024-01-30T04:47:36;2.09;2.09;0
82823;PMS5003;72575;46.834;-71.234;2024-01-30T04:50:02;1;1;1
82823;PMS5003;72575;46.834;-71.234;2024-01-30T04:52:26;2.24;1.48;1
82823;PMS5003;72575;46.834;-71.234;2024-01-30T04:54:53;6.57;4.67;2.52
82823;PMS5003;72575;46.834;-71.234;2024-01-30T04:57:15;3.52;3.52;1
82823;PMS5003;72575;46.834;-71.234;2024-01-30T04:59:41;6.33;3.14;1.48
82823;PMS5003;72575;46.834;-71.234;2024-01-30T06:26:42;3;3;0.95
82823;PMS5003;72575;46.834;-71.234;2024-01-30T06:29:06;0;0;0
82823;PMS5003;72575;46.834;-71.234;2024-01-30T06:31:33;1.48;1.48;0
82823;PMS5003;72575;46.834;-71.234;2024-01-30T06:33:56;1;1;0
82823;PMS5003;72575;46.834;-71.234;2024-01-30T06:36:22;0;0;0
82823;PMS5003;72575;46.834;-71.234;2024-01-30T06:38:47;1;0.76;0
82823;PMS5003;72575;46.834;-71.234;2024-01-30T06:41:11;0.67;0.67;0
82823;PMS5003;72575;46.834;-71.234;2024-01-30T06:43:40;1.18;1;0
82823;PMS5003;72575;46.834;-71.234;2024-01-30T06:46:06;0.52;0.52;0
82823;PMS5003;72575;46.834;-71.234;2024-01-30T06:48:28;1;1;0
82823;PMS5003;72575;46.834;-71.234;2024-01-30T06:50:57;1;0.38;0
82823;PMS5003;72575;46.834;-71.234;2024-01-30T06:53:20;0.62;0.62;0
82823;PMS5003;72575;46.834;-71.234;2024-01-30T06:55:46;0.38;0.38;0.24
82823;PMS5003;72575;46.834;-71.234;2024-01-30T06:58:11;1;1;0
82823;PMS5003;72575;46.834;-71.234;2024-01-30T07:00:37;0.82;0.82;0
82823;PMS5003;72575;46.834;-71.234;2024-01-30T07:03:03;0.81;0.81;0
82823;PMS5003;72575;46.834;-71.234;2024-01-30T07:05:26;0.52;0.24;0.1
82823;PMS5003;72575;46.834;-71.234;2024-01-30T07:07:52;0.9;0.9;0
82823;PMS5003;72575;46.834;-71.234;2024-01-30T07:10:19;0;0;0
82823;PMS5003;72575;46.834;-71.234;2024-01-30T07:12:46;0.1;0.1;0
82823;PMS5003;72575;46.834;-71.234;2024-01-30T07:15:12;0.64;0.64;0
82823;PMS5003;72575;46.834;-71.234;2024-01-30T07:17:37;0.09;0.09;0
82823;PMS5003;72575;46.834;-71.234;2024-01-30T07:20:03;2.33;1.48;0
82823;PMS5003;72575;46.834;-71.234;2024-01-30T07:22:30;0.24;0.24;0
82823;PMS5003;72575;46.834;-71.234;2024-01-30T07:24:54;0.76;0.76;0
82823;PMS5003;72575;46.834;-71.234;2024-01-30T07:27:19;0.52;0;0
82823;PMS5003;72575;46.834;-71.234;2024-01-30T07:29:44;0.48;0.48;0
82823;PMS5003;72575;46.834;-71.234;2024-01-30T07:32:10;0;0;0
82823;PMS5003;72575;46.834;-71.234;2024-01-30T07:34:36;1.64;0;0
82823;PMS5003;72575;46.834;-71.234;2024-01-30T07:37:02;0;0;0
82823;PMS5003;72575;46.834;-71.234;2024-01-30T07:39:28;0.48;0.48;0.19
82823;PMS5003;72575;46.834;-71.234;2024-01-30T07:41:54;0.1;0.1;0
82823;PMS5003;72575;46.834;-71.234;2024-01-30T07:44:19;0.38;0.38;0
82823;PMS5003;72575;46.834;-71.234;2024-01-30T07:46:43;1.19;1.19;0.1
82823;PMS5003;72575;46.834;-71.234;2024-01-30T07:49:08;3.48;3.48;2.24
82823;PMS5003;72575;46.834;-71.234;2024-01-30T07:51:35;3.45;3.45;2.18
82823;PMS5003;72575;46.834;-71.234;2024-01-30T07:54:00;2.62;2.62;1.81
82823;PMS5003;72575;46.834;-71.234;2024-01-30T07:56:26;3.67;3.67;3.14
82823;PMS5003;72575;46.834;-71.234;2024-01-30T07:58:50;3.14;3.14;2.43
82823;PMS5003;72575;46.834;-71.234;2024-01-30T08:01:16;4.43;4.05;3.33
82823;PMS5003;72575;46.834;-71.234;2024-01-30T08:03:42;4.67;4.67;4.33
82823;PMS5003;72575;46.834;-71.234;2024-01-30T08:06:07;7.33;7.19;5.24
82823;PMS5003;72575;46.834;-71.234;2024-01-30T08:08:33;4.82;4.09;3.95
82823;PMS5003;72575;46.834;-71.234;2024-01-30T08:10:59;5.86;5.38;3.57
82823;PMS5003;72575;46.834;-71.234;2024-01-30T08:13:23;6.43;5.86;5.29
82823;PMS5003;72575;46.834;-71.234;2024-01-30T08:15:47;8.71;8.71;7.29
82823;PMS5003;72575;46.834;-71.234;2024-01-30T08:18:14;10.33;10;9.38
82823;PMS5003;72575;46.834;-71.234;2024-01-30T08:20:38;11.1;9.24;8.81
82823;PMS5003;72575;46.834;-71.234;2024-01-30T08:23:04;7.57;6.9;6.33
82823;PMS5003;72575;46.834;-71.234;2024-01-30T08:25:30;5.36;5.36;5.23
82823;PMS5003;72575;46.834;-71.234;2024-01-30T08:27:56;5.29;5.29;5.29
82823;PMS5003;72575;46.834;-71.234;2024-01-30T08:30:21;6.05;4.67;4.67
82823;PMS5003;72575;46.834;-71.234;2024-01-30T08:32:47;5.29;5.29;4.86
82823;PMS5003;72575;46.834;-71.234;2024-01-30T08:35:13;4.86;4.86;4.57
82823;PMS5003;72575;46.834;-71.234;2024-01-30T08:37:38;5.67;5.67;5
82823;PMS5003;72575;46.834;-71.234;2024-01-30T08:40:02;4.67;4.52;4.14
82823;PMS5003;72575;46.834;-71.234;2024-01-30T08:42:29;6.41;5.18;5.05
82823;PMS5003;72575;46.834;-71.234;2024-01-30T08:44:55;6.33;5.57;4.43
82823;PMS5003;72575;46.834;-71.234;2024-01-30T08:47:18;3.9;3.62;3.62
82823;PMS5003;72575;46.834;-71.234;2024-01-30T08:49:44;4.86;4.86;3.57
82823;PMS5003;72575;46.834;-71.234;2024-01-30T08:52:09;4.95;4.95;4.29
82823;PMS5003;72575;46.834;-71.234;2024-01-30T08:54:36;3.86;3.86;3.57
82823;PMS5003;72575;46.834;-71.234;2024-01-30T08:56:59;5.86;4.43;3.71
82823;PMS5003;72575;46.834;-71.234;2024-01-30T08:59:26;3.68;3.68;3.27
82823;PMS5003;72575;46.834;-71.234;2024-01-30T09:32:43;7.62;5.43;4.57
82823;PMS5003;72575;46.834;-71.234;2024-01-30T09:33:08;4.73;4.5;4.36
82823;PMS5003;72575;46.834;-71.234;2024-01-30T09:33:28;6.45;6.45;5.59
82823;PMS5003;72575;46.834;-71.234;2024-01-30T09:33:45;6.68;6.68;6.05
82823;PMS5003;72575;46.834;-71.234;2024-01-30T09:33:59;7.59;7.59;7.5
82823;PMS5003;72575;46.834;-71.234;2024-01-30T09:34:17;9.68;9.68;8.64
82823;PMS5003;72575;46.834;-71.234;2024-01-30T09:34:28;8;8;7.23
82823;PMS5003;72575;46.834;-71.234;2024-01-30T09:34:29;8.14;8.14;7.41
82823;PMS5003;72575;46.834;-71.234;2024-01-30T09:35:00;4.68;4.68;4.55
82823;PMS5003;72575;46.834;-71.234;2024-01-30T09:37:26;15.38;15.05;13.86
82823;PMS5003;72575;46.834;-71.234;2024-01-30T09:39:49;19.29;19.29;18.62
82823;PMS5003;72575;46.834;-71.234;2024-01-30T09:42:17;19;19;18.6
82823;PMS5003;72575;46.834;-71.234;2024-01-30T09:44:41;17.8;17.8;16.6
82823;PMS5003;72575;46.834;-71.234;2024-01-30T09:47:06;15.67;15.67;14.62
82823;PMS5003;72575;46.834;-71.234;2024-01-30T09:49:31;13.76;13.76;13.48
82823;PMS5003;72575;46.834;-71.234;2024-01-30T09:51:57;16.67;15.43;15.24
82823;PMS5003;72575;46.834;-71.234;2024-01-30T09:54:24;14.48;14;13.48
82823;PMS5003;72575;46.834;-71.234;2024-01-30T09:56:47;16.71;16.05;14.67
82823;PMS5003;72575;46.834;-71.234;2024-01-30T09:59:13;13.42;12.74;9.16
82823;PMS5003;72575;46.834;-71.234;2024-01-30T10:01:39;13.71;13.71;12.24
82823;PMS5003;72575;46.834;-71.234;2024-01-30T10:04:06;6.55;6.14;5.09
82823;PMS5003;72575;46.834;-71.234;2024-01-30T10:06:31;5.81;5.48;4
82823;PMS5003;72575;46.834;-71.234;2024-01-30T10:08:55;17.52;17.52;13.38
82823;PMS5003;72575;46.834;-71.234;2024-01-30T10:11:22;9.57;9.57;9.52
82823;PMS5003;72575;46.834;-71.234;2024-01-30T10:13:46;16.19;16.1;12.29
82823;PMS5003;72575;46.834;-71.234;2024-01-30T10:16:13;15.45;14.65;11.5
82823;PMS5003;72575;46.834;-71.234;2024-01-30T10:18:36;6.05;6.05;4.76
82823;PMS5003;72575;46.834;-71.234;2024-01-30T10:21:02;5.23;5.23;4.5
82823;PMS5003;72575;46.834;-71.234;2024-01-30T10:23:28;11.1;10.71;9.52
82823;PMS5003;72575;46.834;-71.234;2024-01-30T10:25:53;10.95;10.38;6.9
82823;PMS5003;72575;46.834;-71.234;2024-01-30T10:28:18;5.29;5.29;4.76
82823;PMS5003;72575;46.834;-71.234;2024-01-30T10:30:44;5.33;5.33;5.33
82823;PMS5003;72575;46.834;-71.234;2024-01-30T10:33:09;6.9;2.81;0.9
82823;PMS5003;72575;46.834;-71.234;2024-01-30T10:35:35;2.52;1;0.1
82823;PMS5003;72575;46.834;-71.234;2024-01-30T10:38:00;0.82;0;0
82823;PMS5003;72575;46.834;-71.234;2024-01-30T10:40:27;0;0;0
82823;PMS5003;72575;46.834;-71.234;2024-01-30T10:42:50;0.9;0.9;0
82823;PMS5003;72575;46.834;-71.234;2024-01-30T10:45:16;1;0.81;0
82823;PMS5003;72575;46.834;-71.234;2024-01-30T10:47:43;0;0;0
82823;PMS5003;72575;46.834;-71.234;2024-01-30T10:50:07;1.19;1.19;0
82823;PMS5003;72575;46.834;-71.234;2024-01-30T10:52:33;0;0;0
82823;PMS5003;72575;46.834;-71.234;2024-01-30T10:54:57;0.68;0.68;0
82823;PMS5003;72575;46.834;-71.234;2024-01-30T10:57:24;1;1;0
82823;PMS5003;72575;46.834;-71.234;2024-01-30T10:59:51;2.24;1.43;0.1
82823;PMS5003;72575;46.834;-71.234;2024-01-30T11:02:14;1.48;1.48;0
82823;PMS5003;72575;46.834;-71.234;2024-01-30T11:04:41;0.9;0.9;0
82823;PMS5003;72575;46.834;-71.234;2024-01-30T11:07:13;0.05;0.05;0
82823;PMS5003;72575;46.834;-71.234;2024-01-30T11:09:32;0.1;0.1;0
82823;PMS5003;72575;46.834;-71.234;2024-01-30T11:11:56;0.41;0.41;0
82823;PMS5003;72575;46.834;-71.234;2024-01-30T11:14:23;3.67;3.67;1.14
82823;PMS5003;72575;46.834;-71.234;2024-01-30T11:16:47;4.19;3.81;1
82823;PMS5003;72575;46.834;-71.234;2024-01-30T11:19:11;5.81;5.38;1
82823;PMS5003;72575;46.834;-71.234;2024-01-30T11:21:41;3.95;3.52;2.9
82823;PMS5003;72575;46.834;-71.234;2024-01-30T11:24:04;4.19;4.19;3.38
82823;PMS5003;72575;46.834;-71.234;2024-01-30T11:26:30;5.14;4.76;3.38
82823;PMS5003;72575;46.834;-71.234;2024-01-30T11:28:54;12.09;11.82;11.14
82823;PMS5003;72575;46.834;-71.234;2024-01-30T11:31:20;11.43;10.43;8.86
82823;PMS5003;72575;46.834;-71.234;2024-01-30T11:33:44;17.43;17.1;9.67
82823;PMS5003;72575;46.834;-71.234;2024-01-30T11:36:11;13.1;13.1;7.25
82823;PMS5003;72575;46.834;-71.234;2024-01-30T11:38:36;15.71;15.71;13.76
82823;PMS5003;72575;46.834;-71.234;2024-01-30T11:41:00;19.95;17.85;14.8
82823;PMS5003;72575;46.834;-71.234;2024-01-30T11:43:27;22.75;22.75;21.35
82823;PMS5003;72575;46.834;-71.234;2024-01-30T11:45:53;23.05;23.05;20.95
82823;PMS5003;72575;46.834;-71.234;2024-01-30T11:48:17;21.1;21.1;18.05
82823;PMS5003;72575;46.834;-71.234;2024-01-30T11:50:43;12.43;12.43;11.9
82823;PMS5003;72575;46.834;-71.234;2024-01-30T11:53:09;12.71;11.29;10.24
82823;PMS5003;72575;46.834;-71.234;2024-01-30T11:55:33;13;11.29;10.19
82823;PMS5003;72575;46.834;-71.234;2024-01-30T11:57:58;13.19;10.86;7.81
82823;PMS5003;72575;46.834;-71.234;2024-01-30T12:00:23;13.3;12.6;7
82823;PMS5003;72575;46.834;-71.234;2024-01-30T12:02:49;15.09;14.09;12.68
82823;PMS5003;72575;46.834;-71.234;2024-01-30T12:05:15;17.48;16.71;12.48
82823;PMS5003;72575;46.834;-71.234;2024-01-30T12:07:44;17.62;16.76;14.24
82823;PMS5003;72575;46.834;-71.234;2024-01-30T12:10:08;28.33;26.62;17.57
82823;PMS5003;72575;46.834;-71.234;2024-01-30T12:12:32;9.73;6.73;3.82
82823;PMS5003;72575;46.834;-71.234;2024-01-30T12:14:58;14.71;12.67;7.29
82823;PMS5003;72575;46.834;-71.234;2024-01-30T12:17:24;11.57;9.43;4.57
82823;PMS5003;72575;46.834;-71.234;2024-01-30T12:19:48;14.73;12.82;4.82
82823;PMS5003;72575;46.834;-71.234;2024-01-30T12:22:13;10.1;8.57;4.71
82823;PMS5003;72575;46.834;-71.234;2024-01-30T12:24:39;8.9;6.48;3.1
82823;PMS5003;72575;46.834;-71.234;2024-01-30T12:27:05;5.29;4.71;1.48
82823;PMS5003;72575;46.834;-71.234;2024-01-30T12:29:32;19.81;15.14;8.33
82823;PMS5003;72575;46.834;-71.234;2024-01-30T12:31:57;21.71;18.71;10.29
82823;PMS5003;72575;46.834;-71.234;2024-01-30T12:34:20;7.43;7.38;4
82823;PMS5003;72575;46.834;-71.234;2024-01-30T12:36:47;15.32;13.64;6.73
82823;PMS5003;72575;46.834;-71.234;2024-01-30T12:39:14;14.15;13.05;5.2
82823;PMS5003;72575;46.834;-71.234;2024-01-30T12:41:37;13.38;13.1;7
82823;PMS5003;72575;46.834;-71.234;2024-01-30T12:44:05;20.24;16.95;11.52
82823;PMS5003;72575;46.834;-71.234;2024-01-30T12:46:28;15.71;13.43;5.86
82823;PMS5003;72575;46.834;-71.234;2024-01-30T12:48:54;13.33;12.05;6.86
82823;PMS5003;72575;46.834;-71.234;2024-01-30T12:51:20;14.14;14;6
82823;PMS5003;72575;46.834;-71.234;2024-01-30T12:53:46;22.27;20.32;11.5
82823;PMS5003;72575;46.834;-71.234;2024-01-30T12:56:10;15;13.76;7.19
82823;PMS5003;72575;46.834;-71.234;2024-01-30T12:58:36;11.43;11.43;6.48
82823;PMS5003;72575;46.834;-71.234;2024-01-30T13:01:01;15.71;14.62;8.9
82823;PMS5003;72575;46.834;-71.234;2024-01-30T13:03:27;20.38;18.52;9.95
82823;PMS5003;72575;46.834;-71.234;2024-01-30T13:05:51;11.14;11.05;6.24
82823;PMS5003;72575;46.834;-71.234;2024-01-30T13:08:16;26.05;22.24;9.95
82823;PMS5003;72575;46.834;-71.234;2024-01-30T13:10:42;8.64;8.64;4.5
82823;PMS5003;72575;46.834;-71.234;2024-01-30T13:13:09;9.1;7.57;4
82823;PMS5003;72575;46.834;-71.234;2024-01-30T13:15:35;12.48;8.05;4
82823;PMS5003;72575;46.834;-71.234;2024-01-30T13:18:00;9.71;7.48;4.76
82823;PMS5003;72575;46.834;-71.234;2024-01-30T13:20:24;8.57;7.67;5.05
82823;PMS5003;72575;46.834;-71.234;2024-01-30T13:22:51;13.81;11.62;4.48
82823;PMS5003;72575;46.834;-71.234;2024-01-30T13:25:15;9.14;7.71;4.71
82823;PMS5003;72575;46.834;-71.234;2024-01-30T13:27:48;16.14;14.77;7.95
82823;PMS5003;72575;46.834;-71.234;2024-01-30T13:30:14;29.86;25.82;18.27
82823;PMS5003;72575;46.834;-71.234;2024-01-30T13:32:38;85.26;66.89;37.05
82823;PMS5003;72575;46.834;-71.234;2024-01-30T13:35:07;79.15;59.1;32.75
82823;PMS5003;72575;46.834;-71.234;2024-01-30T13:37:30;47.21;39.58;22.47
82823;PMS5003;72575;46.834;-71.234;2024-01-30T13:39:56;32.25;30.9;25.85
82823;PMS5003;72575;46.834;-71.234;2024-01-30T13:42:22;20.38;18.67;8.19
82823;PMS5003;72575;46.834;-71.234;2024-01-30T13:44:48;33.95;31.14;25.29
82823;PMS5003;72575;46.834;-71.234;2024-01-30T13:47:12;19.5;17.55;13.65
82823;PMS5003;72575;46.834;-71.234;2024-01-30T13:49:39;9.38;9.38;7
82823;PMS5003;72575;46.834;-71.234;2024-01-30T13:52:02;10.5;9.25;3.25
82823;PMS5003;72575;46.834;-71.234;2024-01-30T13:54:28;4.76;3.19;1
82823;PMS5003;72575;46.834;-71.234;2024-01-30T13:56:55;4.1;2.81;1.38
82823;PMS5003;72575;46.834;-71.234;2024-01-30T13:59:21;2.9;1.76;0.38
82823;PMS5003;72575;46.834;-71.234;2024-01-30T14:01:46;3.41;3.41;2.91
82823;PMS5003;72575;46.834;-71.234;2024-01-30T14:04:12;5.52;3.9;1
82823;PMS5003;72575;46.834;-71.234;2024-01-30T14:06:36;4.1;4.1;1.76
82823;PMS5003;72575;46.834;-71.234;2024-01-30T14:09:03;4.14;3.33;1
82823;PMS5003;72575;46.834;-71.234;2024-01-30T14:11:26;3;3;1
82823;PMS5003;72575;46.834;-71.234;2024-01-30T14:13:52;4.14;4.14;2.81
82823;PMS5003;72575;46.834;-71.234;2024-01-30T14:16:19;7.43;6;3
82823;PMS5003;72575;46.834;-71.234;2024-01-30T14:18:43;4.27;3.41;1.27
82823;PMS5003;72575;46.834;-71.234;2024-01-30T14:21:09;5.76;5.52;3
82823;PMS5003;72575;46.834;-71.234;2024-01-30T14:23:35;6.86;6;3
82823;PMS5003;72575;46.834;-71.234;2024-01-30T14:26:01;3.76;2.71;1.19
82823;PMS5003;72575;46.834;-71.234;2024-01-30T14:28:24;7.71;6.33;2.81
82823;PMS5003;72575;46.834;-71.234;2024-01-30T14:30:50;7.71;5.9;2.81
82823;PMS5003;72575;46.834;-71.234;2024-01-30T14:33:15;7.43;6.14;3.67
82823;PMS5003;72575;46.834;-71.234;2024-01-30T14:35:40;10.05;7;4.18
82823;PMS5003;72575;46.834;-71.234;2024-01-30T14:38:06;5.57;5.43;3.62
82823;PMS5003;72575;46.834;-71.234;2024-01-30T14:40:33;4;3;1
82823;PMS5003;72575;46.834;-71.234;2024-01-30T14:42:56;7;6.14;3.67
82823;PMS5003;72575;46.834;-71.234;2024-01-30T14:45:23;7.48;5.71;2.81
82823;PMS5003;72575;46.834;-71.234;2024-01-30T14:47:48;6.76;6.76;5.86
82823;PMS5003;72575;46.834;-71.234;2024-01-30T14:50:14;7.14;6.86;3.67
82823;PMS5003;72575;46.834;-71.234;2024-01-30T14:52:39;6;6;3
82823;PMS5003;72575;46.834;-71.234;2024-01-30T14:55:06;10.71;9.52;6.24
82823;PMS5003;72575;46.834;-71.234;2024-01-30T14:57:30;4;4;2.9
82823;PMS5003;72575;46.834;-71.234;2024-01-30T14:59:56;4;4;3.19
82823;PMS5003;72575;46.834;-71.234;2024-01-30T15:02:22;8.9;8.19;3.62
82823;PMS5003;72575;46.834;-71.234;2024-01-30T15:04:48;4.48;3.67;1.48
82823;PMS5003;72575;46.834;-71.234;2024-01-30T15:07:13;6.71;4.43;1.19
82823;PMS5003;72575;46.834;-71.234;2024-01-30T15:09:40;5;5;2.27
82823;PMS5003;72575;46.834;-71.234;2024-01-30T15:12:03;2.9;2.9;1
82823;PMS5003;72575;46.834;-71.234;2024-01-30T15:14:30;1;1;0.76
82823;PMS5003;72575;46.834;-71.234;2024-01-30T15:16:54;3.38;3;0.52
82823;PMS5003;72575;46.834;-71.234;2024-01-30T15:19:20;3.76;3.38;2.9
82823;PMS5003;72575;46.834;-71.234;2024-01-30T15:21:44;4.19;3.38;1
82823;PMS5003;72575;46.834;-71.234;2024-01-30T15:24:10;1.48;0.67;0
82823;PMS5003;72575;46.834;-71.234;2024-01-30T15:26:36;3.09;2.18;0.55
82823;PMS5003;72575;46.834;-71.234;2024-01-30T15:29:02;1.95;1.95;0.95
82823;PMS5003;72575;46.834;-71.234;2024-01-30T15:31:28;3.1;3;1
82823;PMS5003;72575;46.834;-71.234;2024-01-30T15:33:51;3;3;0.24
82823;PMS5003;72575;46.834;-71.234;2024-01-30T15:36:19;3.67;2.81;1
82823;PMS5003;72575;46.834;-71.234;2024-01-30T15:38:42;5.25;4.05;1.4
82823;PMS5003;72575;46.834;-71.234;2024-01-30T15:41:07;6.5;6.1;0.9
82823;PMS5003;72575;46.834;-71.234;2024-01-30T15:43:33;1.53;0.79;0